createdAt,value
2023-01-13T00:01:29.232Z,97650.40
2023-01-13T00:03:57.885Z,97650.16
2023-01-13T00:06:26.181Z,97648.13
2023-01-13T00:08:55.039Z,97649.54
2023-01-13T00:11:23.443Z,97644.41
2023-01-13T00:13:51.371Z,97641.97
2023-01-13T00:16:20.402Z,97640.36
2023-01-13T00:18:49.196Z,97643.42
2023-01-13T00:21:23.286Z,97646.43
2023-01-13T00:23:55.715Z,97649.55
2023-01-13T00:26:28.000Z,97647.64
2023-01-13T00:28:59.892Z,97641.98
2023-01-13T00:31:30.026Z,97644.77
2023-01-13T00:34:00.103Z,97644.56
2023-01-13T00:36:29.288Z,97646.48
2023-01-13T00:38:57.392Z,97647.16
2023-01-13T00:41:26.688Z,97648.23
2023-01-13T00:43:54.598Z,97644.91
2023-01-13T00:46:22.848Z,97642.69
2023-01-13T00:48:51.647Z,97644.17
2023-01-13T00:51:21.349Z,97644.09
2023-01-13T00:53:51.640Z,97647.91
2023-01-13T00:56:39.252Z,97646.66
2023-01-13T00:59:11.650Z,97646.01
2023-01-13T01:01:41.075Z,97645.48
2023-01-13T01:04:09.157Z,97645.08
2023-01-13T01:06:37.078Z,97643.42
2023-01-13T01:09:05.813Z,97645.15
2023-01-13T01:11:34.434Z,97649.10
2023-01-13T01:14:04.003Z,97648.66
2023-01-13T01:16:33.631Z,97647.68
2023-01-13T01:19:02.133Z,97642.34
2023-01-13T01:21:30.073Z,97640.48
2023-01-13T01:24:03.934Z,97639.70
2023-01-13T01:26:31.920Z,97636.34
2023-01-13T01:29:02.118Z,97635.14
2023-01-13T01:31:32.677Z,97630.86
2023-01-13T01:34:01.572Z,97630.71
2023-01-13T01:36:34.892Z,97629.35
2023-01-13T01:39:03.919Z,97625.14
2023-01-13T01:41:33.757Z,97621.67
2023-01-13T01:44:08.254Z,97622.05
2023-01-13T01:46:42.015Z,97617.52
2023-01-13T01:49:09.815Z,97618.63
2023-01-13T01:51:46.069Z,97612.33
2023-01-13T01:54:19.842Z,97612.70
2023-01-13T01:56:48.248Z,97615.23
2023-01-13T01:59:16.451Z,97607.45
2023-01-13T02:01:45.504Z,97612.52
2023-01-13T02:04:23.241Z,97613.31
2023-01-13T02:06:52.724Z,97613.38
2023-01-13T02:09:20.535Z,97611.61
2023-01-13T02:12:06.563Z,97610.37
2023-01-13T02:14:35.779Z,97607.09
2023-01-13T02:17:16.329Z,97607.45
2023-01-13T02:19:56.035Z,97605.58
2023-01-13T02:22:39.071Z,97607.89
2023-01-13T02:25:26.767Z,97603.52
2023-01-13T02:28:06.285Z,97603.36
2023-01-13T02:31:01.191Z,97602.33
2023-01-13T02:33:37.105Z,97601.74
2023-01-13T02:36:20.177Z,97598.61
2023-01-13T02:39:14.368Z,97600.36
2023-01-13T02:42:15.409Z,97604.49
2023-01-13T02:44:51.537Z,97609.78
2023-01-13T02:47:26.049Z,97609.36
2023-01-13T02:50:02.641Z,97612.17
2023-01-13T02:52:41.003Z,97613.81
2023-01-13T02:55:18.246Z,97611.80
2023-01-13T02:57:47.885Z,97610.34
2023-01-13T03:00:17.042Z,97615.58
2023-01-13T03:02:45.035Z,97624.23
2023-01-13T03:05:17.306Z,97622.05
2023-01-13T03:07:53.421Z,97621.29
2023-01-13T03:10:52.541Z,97621.98
2023-01-13T03:13:51.229Z,97619.86
2023-01-13T03:16:36.532Z,97619.67
2023-01-13T03:19:29.295Z,97624.02
2023-01-13T03:22:07.482Z,97626.15
2023-01-13T03:24:40.364Z,97626.45
2023-01-13T03:27:23.260Z,97629.35
2023-01-13T03:29:59.612Z,97630.92
2023-01-13T03:32:33.727Z,97630.80
2023-01-13T03:35:20.590Z,97625.38
2023-01-13T03:37:57.034Z,97628.39
2023-01-13T03:40:31.055Z,97629.88
2023-01-13T03:43:24.224Z,97629.79
2023-01-13T03:45:58.696Z,97628.95
2023-01-13T03:48:29.749Z,97631.12
2023-01-13T03:51:06.510Z,97631.16
2023-01-13T03:53:48.025Z,97631.11
2023-01-13T03:56:27.381Z,97631.09
2023-01-13T03:58:57.749Z,97630.27
2023-01-13T04:01:34.710Z,97630.40
2023-01-13T04:04:09.624Z,97635.39
2023-01-13T04:06:47.533Z,97640.00
2023-01-13T04:09:29.394Z,97640.23
2023-01-13T04:12:24.986Z,97639.48
2023-01-13T04:14:54.437Z,97641.70
2023-01-13T04:17:23.992Z,97641.96
2023-01-13T04:19:51.842Z,97644.13
2023-01-13T04:22:19.814Z,97644.75
2023-01-13T04:24:47.813Z,97646.89
2023-01-13T04:27:15.705Z,97644.62
2023-01-13T04:29:43.546Z,97645.84
2023-01-13T04:32:11.469Z,97642.60
2023-01-13T04:34:39.402Z,97640.81
2023-01-13T04:37:07.213Z,97643.77
2023-01-13T04:39:35.115Z,97646.83
2023-01-13T04:42:03.080Z,97649.48
2023-01-13T04:44:35.152Z,97648.02
2023-01-13T04:47:03.158Z,97648.24
2023-01-13T04:49:31.255Z,97649.95
2023-01-13T04:51:59.289Z,97650.70
2023-01-13T04:54:27.207Z,97655.11
2023-01-13T04:56:55.101Z,97656.98
2023-01-13T04:59:22.949Z,97654.87
2023-01-13T05:01:50.968Z,97655.08
2023-01-13T05:04:19.080Z,97655.71
2023-01-13T05:06:47.009Z,97654.03
2023-01-13T05:09:15.851Z,97650.49
2023-01-13T05:12:02.296Z,97649.04
2023-01-13T05:14:48.495Z,97645.84
2023-01-13T05:17:22.718Z,97651.06
2023-01-13T05:19:51.305Z,97648.05
2023-01-13T05:22:37.798Z,97653.21
2023-01-13T05:25:25.278Z,97654.92
2023-01-13T05:27:56.153Z,97657.23
2023-01-13T05:30:29.631Z,97658.46
2023-01-13T05:32:57.787Z,97660.55
2023-01-13T05:35:25.876Z,97661.81
2023-01-13T05:37:55.192Z,97660.16
2023-01-13T05:40:41.761Z,97658.98
2023-01-13T05:43:21.920Z,97656.20
2023-01-13T05:45:55.831Z,97656.15
2023-01-13T05:48:25.476Z,97660.05
2023-01-13T05:50:54.141Z,97659.45
2023-01-13T05:53:22.914Z,97662.83
2023-01-13T05:55:51.457Z,97667.70
2023-01-13T05:58:21.047Z,97667.02
2023-01-13T06:00:49.626Z,97676.16
2023-01-13T06:03:21.809Z,97677.66
2023-01-13T06:05:52.039Z,97682.59
2023-01-13T06:08:20.025Z,97682.10
2023-01-13T06:10:47.928Z,97680.38
2023-01-13T06:13:16.182Z,97677.65
2023-01-13T06:15:44.466Z,97672.64
2023-01-13T06:18:12.456Z,97674.94
2023-01-13T06:20:40.470Z,97676.27
2023-01-13T06:23:10.958Z,97680.11
2023-01-13T06:25:42.238Z,97686.09
2023-01-13T06:28:10.804Z,97691.08
2023-01-13T06:30:55.655Z,97693.21
2023-01-13T06:33:32.978Z,97693.06
2023-01-13T06:36:06.482Z,97690.05
2023-01-13T06:38:39.360Z,97688.09
2023-01-13T06:41:08.481Z,97689.76
2023-01-13T06:43:36.576Z,97691.60
2023-01-13T06:46:04.944Z,97690.26
2023-01-13T06:48:35.478Z,97690.00
2023-01-13T06:51:04.939Z,97687.04
2023-01-13T06:53:33.061Z,97689.02
2023-01-13T06:56:00.952Z,97688.48
2023-01-13T06:58:28.909Z,97691.55
2023-01-13T07:01:00.537Z,97694.18
2023-01-13T07:03:28.590Z,97693.25
2023-01-13T07:05:56.707Z,97692.95
2023-01-13T07:08:24.818Z,97690.50
2023-01-13T07:10:53.175Z,97688.34
2023-01-13T07:13:39.721Z,97687.06
2023-01-13T07:16:09.316Z,97688.68
2023-01-13T07:18:37.376Z,97690.42
2023-01-13T07:21:08.020Z,97688.21
2023-01-13T07:23:41.498Z,97686.34
2023-01-13T07:26:10.627Z,97684.70
2023-01-13T07:28:39.350Z,97680.42
2023-01-13T07:31:14.966Z,97681.63
2023-01-13T07:33:43.190Z,97685.10
2023-01-13T07:36:11.348Z,97683.41
2023-01-13T07:38:40.026Z,97682.44
2023-01-13T07:41:26.463Z,97682.48
2023-01-13T07:43:54.275Z,97682.23
2023-01-13T07:46:22.121Z,97679.76
2023-01-13T07:48:50.083Z,97679.50
2023-01-13T07:51:18.001Z,97683.29
2023-01-13T07:53:46.000Z,97681.67
2023-01-13T07:56:14.229Z,97679.45
2023-01-13T07:58:42.231Z,97675.65
2023-01-13T08:01:12.561Z,97676.77
2023-01-13T08:03:41.185Z,97674.61
2023-01-13T08:06:10.151Z,97678.23
2023-01-13T08:08:38.464Z,97679.20
2023-01-13T08:11:08.267Z,97679.27
2023-01-13T08:13:36.532Z,97681.54
2023-01-13T08:16:07.797Z,97681.64
2023-01-13T08:18:37.224Z,97682.58
2023-01-13T08:21:11.708Z,97682.63
2023-01-13T08:23:41.030Z,97678.97
2023-01-13T08:26:12.771Z,97679.02
2023-01-13T08:28:40.860Z,97682.12
2023-01-13T08:31:12.756Z,97683.63
2023-01-13T08:33:41.778Z,97682.16
2023-01-13T08:36:12.403Z,97685.63
2023-01-13T08:38:41.611Z,97687.66
2023-01-13T08:41:14.645Z,97686.77
2023-01-13T08:43:42.712Z,97686.58
2023-01-13T08:46:10.545Z,97688.88
2023-01-13T08:48:38.428Z,97689.48
2023-01-13T08:51:08.897Z,97687.20
2023-01-13T08:53:36.922Z,97684.57
2023-01-13T08:56:11.752Z,97689.58
2023-01-13T08:58:40.706Z,97692.31
2023-01-13T09:01:10.274Z,97692.20
2023-01-13T09:03:39.359Z,97687.25
2023-01-13T09:06:07.563Z,97684.58
2023-01-13T09:08:35.549Z,97683.78
2023-01-13T09:11:23.434Z,97683.84
2023-01-13T09:13:51.914Z,97687.14
2023-01-13T09:16:19.846Z,97686.58
2023-01-13T09:18:47.731Z,97687.61
2023-01-13T09:21:16.706Z,97687.17
2023-01-13T09:23:44.768Z,97684.06
2023-01-13T09:26:16.529Z,97682.91
2023-01-13T09:28:44.334Z,97680.73
2023-01-13T09:31:12.210Z,97680.61
2023-01-13T09:33:58.646Z,97676.36
2023-01-13T09:36:26.628Z,97675.00
2023-01-13T09:38:54.486Z,97675.30
2023-01-13T09:41:44.730Z,97673.98
2023-01-13T09:44:20.155Z,97673.85
2023-01-13T09:46:53.498Z,97664.65
2023-01-13T09:49:24.861Z,97663.52
2023-01-13T09:52:02.933Z,97662.34
2023-01-13T09:54:39.012Z,97658.19
2023-01-13T09:57:16.142Z,97653.42
2023-01-13T09:59:44.632Z,97650.31
2023-01-13T10:02:24.421Z,97647.40
2023-01-13T10:05:22.517Z,97645.05
2023-01-13T10:07:59.187Z,97647.27
2023-01-13T10:10:46.540Z,97646.45
2023-01-13T10:13:16.616Z,97643.15
2023-01-13T10:16:09.298Z,97639.77
2023-01-13T10:18:57.092Z,97641.31
2023-01-13T10:21:56.755Z,97636.06
2023-01-13T10:24:39.825Z,97630.27
2023-01-13T10:27:15.416Z,97632.56
2023-01-13T10:29:43.256Z,97628.60
2023-01-13T10:32:11.633Z,97625.77
2023-01-13T10:34:51.498Z,97620.80
2023-01-13T10:37:22.176Z,97619.25
2023-01-13T10:39:55.065Z,97612.59
2023-01-13T10:42:25.545Z,97609.61
2023-01-13T10:44:56.386Z,97608.77
2023-01-13T10:47:27.864Z,97608.30
2023-01-13T10:50:05.969Z,97606.86
2023-01-13T10:52:39.513Z,97600.73
2023-01-13T10:55:37.294Z,97605.34
2023-01-13T10:58:20.589Z,97597.04
2023-01-13T11:00:49.523Z,97597.39
2023-01-13T11:03:21.052Z,97591.63
2023-01-13T11:05:58.123Z,97589.33
2023-01-13T11:08:29.795Z,97588.69
2023-01-13T11:10:59.566Z,97588.93
2023-01-13T11:13:59.798Z,97592.33
2023-01-13T11:16:28.803Z,97589.52
2023-01-13T11:19:02.997Z,97585.63
2023-01-13T11:21:52.688Z,97585.79
2023-01-13T11:24:30.004Z,97585.02
2023-01-13T11:27:25.918Z,97585.39
2023-01-13T11:30:10.320Z,97583.52
2023-01-13T11:33:12.283Z,97572.48
2023-01-13T11:36:05.040Z,97568.30
2023-01-13T11:38:54.769Z,97564.90
2023-01-13T11:41:40.310Z,97564.92
2023-01-13T11:44:16.747Z,97558.58
2023-01-13T11:46:44.842Z,97554.36
2023-01-13T11:49:29.809Z,97554.08
2023-01-13T11:52:13.192Z,97553.36
2023-01-13T11:54:55.361Z,97554.52
2023-01-13T11:57:26.023Z,97553.91
2023-01-13T12:00:23.574Z,97553.04
2023-01-13T12:03:03.715Z,97551.75
2023-01-13T12:05:34.983Z,97545.23
2023-01-13T12:08:28.149Z,97544.80
2023-01-13T12:11:14.786Z,97545.34
2023-01-13T12:13:45.278Z,97539.86
2023-01-13T12:16:26.720Z,97538.05
2023-01-13T12:19:16.860Z,97539.13
2023-01-13T12:22:01.885Z,97542.27
2023-01-13T12:24:51.110Z,97542.54
2023-01-13T12:27:49.909Z,97542.20
2023-01-13T12:30:25.742Z,97543.34
2023-01-13T12:32:58.893Z,97539.67
2023-01-13T12:35:39.312Z,97537.07
2023-01-13T12:38:35.150Z,97540.77
2023-01-13T12:41:24.744Z,97540.97
2023-01-13T12:44:11.797Z,97544.05
2023-01-13T12:46:53.302Z,97544.81
2023-01-13T12:49:27.225Z,97545.59
2023-01-13T12:51:55.164Z,97540.74
2023-01-13T12:54:49.055Z,97542.29
2023-01-13T12:57:17.128Z,97544.90
2023-01-13T13:00:06.180Z,97544.45
2023-01-13T13:02:42.627Z,97542.05
2023-01-13T13:05:22.705Z,97544.23
2023-01-13T13:08:07.205Z,97539.98
2023-01-13T13:10:39.264Z,97540.45
2023-01-13T13:13:20.364Z,97541.30
2023-01-13T13:15:50.680Z,97537.61
2023-01-13T13:18:20.634Z,97534.27
2023-01-13T13:20:54.657Z,97532.27
2023-01-13T13:23:44.421Z,97531.58
2023-01-13T13:26:16.529Z,97531.63
2023-01-13T13:28:54.871Z,97525.20
2023-01-13T13:31:44.260Z,97523.75
2023-01-13T13:34:49.094Z,97527.89
2023-01-13T13:38:09.577Z,97530.75
2023-01-13T13:41:03.053Z,97536.48
2023-01-13T13:44:19.253Z,97540.09
2023-01-13T13:46:49.574Z,97538.70
2023-01-13T13:49:34.397Z,97535.35
2023-01-13T13:52:15.250Z,97537.19
2023-01-13T13:54:47.739Z,97541.52
2023-01-13T13:57:39.430Z,97542.98
2023-01-13T14:00:21.699Z,97543.30
2023-01-13T14:03:01.582Z,97543.27
2023-01-13T14:05:34.995Z,97547.31
2023-01-13T14:08:15.979Z,97548.33
2023-01-13T14:10:46.339Z,97549.50
2023-01-13T14:13:27.610Z,97552.32
2023-01-13T14:16:04.928Z,97551.50
2023-01-13T14:18:39.778Z,97549.43
2023-01-13T14:21:29.858Z,97550.10
2023-01-13T14:24:14.099Z,97552.27
2023-01-13T14:26:53.128Z,97549.02
2023-01-13T14:29:23.801Z,97546.48
2023-01-13T14:31:54.591Z,97554.20
2023-01-13T14:34:32.527Z,97562.17
2023-01-13T14:37:28.214Z,97568.70
2023-01-13T14:39:56.242Z,97569.47
2023-01-13T14:42:24.347Z,97567.64
2023-01-13T14:44:52.375Z,97565.08
2023-01-13T14:47:25.685Z,97565.30
2023-01-13T14:50:00.576Z,97565.20
2023-01-13T14:52:35.709Z,97564.58
2023-01-13T14:55:06.739Z,97564.88
2023-01-13T14:57:41.826Z,97565.61
2023-01-13T15:00:15.690Z,97562.17
2023-01-13T15:02:46.626Z,97560.89
2023-01-13T15:05:18.857Z,97564.02
2023-01-13T15:07:59.447Z,97565.16
2023-01-13T15:10:34.038Z,97564.80
2023-01-13T15:13:05.451Z,97565.76
2023-01-13T15:15:39.304Z,97566.88
2023-01-13T15:18:15.789Z,97568.13
2023-01-13T15:20:44.269Z,97566.10
2023-01-13T15:23:12.670Z,97565.89
2023-01-13T15:25:42.546Z,97565.63
2023-01-13T15:28:27.163Z,97562.94
2023-01-13T15:31:00.685Z,97564.65
2023-01-13T15:33:28.713Z,97564.02
2023-01-13T15:35:56.540Z,97563.98
2023-01-13T15:38:24.959Z,97564.94
2023-01-13T15:40:53.601Z,97565.20
2023-01-13T15:43:42.025Z,97564.37
2023-01-13T15:46:36.150Z,97566.04
2023-01-13T15:49:23.210Z,97570.63
2023-01-13T15:51:51.163Z,97569.89
2023-01-13T15:54:22.801Z,97567.82
2023-01-13T15:56:51.069Z,97564.47
2023-01-13T15:59:22.370Z,97562.55
2023-01-13T16:01:50.310Z,97562.34
2023-01-13T16:04:18.221Z,97560.95
2023-01-13T16:06:47.599Z,97558.52
2023-01-13T16:09:16.824Z,97559.10
2023-01-13T16:11:44.794Z,97564.93
2023-01-13T16:14:12.629Z,97561.56
2023-01-13T16:16:40.848Z,97561.77
2023-01-13T16:19:11.448Z,97561.41
2023-01-13T16:21:40.501Z,97557.19
2023-01-13T16:24:08.482Z,97561.42
2023-01-13T16:26:37.633Z,97561.85
2023-01-13T16:29:06.673Z,97561.02
2023-01-13T16:31:34.839Z,97562.16
2023-01-13T16:34:04.801Z,97560.54
2023-01-13T16:36:35.860Z,97560.63
2023-01-13T16:39:05.179Z,97560.45
2023-01-13T16:41:33.864Z,97559.96
2023-01-13T16:44:06.089Z,97556.08
2023-01-13T16:46:34.258Z,97555.48
2023-01-13T16:49:05.034Z,97558.06
2023-01-13T16:51:33.693Z,97556.80
2023-01-13T16:54:01.605Z,97557.48
2023-01-13T16:56:31.937Z,97557.71
2023-01-13T16:59:05.628Z,97559.88
2023-01-13T17:01:39.704Z,97562.20
2023-01-13T17:04:17.193Z,97564.83
2023-01-13T17:07:16.683Z,97568.88
2023-01-13T17:09:44.772Z,97565.00
2023-01-13T17:12:12.725Z,97564.30
2023-01-13T17:14:43.233Z,97558.94
2023-01-13T17:17:22.151Z,97560.56
2023-01-13T17:19:50.813Z,97564.80
2023-01-13T17:22:20.372Z,97566.62
2023-01-13T17:24:48.907Z,97566.59
2023-01-13T17:27:18.691Z,97565.30
2023-01-13T17:29:46.631Z,97566.98
2023-01-13T17:32:16.917Z,97565.84
2023-01-13T17:34:47.841Z,97565.33
2023-01-13T17:37:16.494Z,97566.39
2023-01-13T17:39:46.420Z,97569.96
2023-01-13T17:42:15.773Z,97570.23
2023-01-13T17:44:48.241Z,97569.77
2023-01-13T17:47:16.301Z,97567.20
2023-01-13T17:49:44.419Z,97570.46
2023-01-13T17:52:12.624Z,97569.92
2023-01-13T17:54:43.125Z,97567.30
2023-01-13T17:57:11.088Z,97562.21
2023-01-13T17:59:40.209Z,97556.66
2023-01-13T18:02:11.372Z,97557.31
2023-01-13T18:04:40.061Z,97559.26
2023-01-13T18:07:08.353Z,97558.81
2023-01-13T18:09:36.302Z,97556.08
2023-01-13T18:12:05.636Z,97555.25
2023-01-13T18:14:34.976Z,97553.58
2023-01-13T18:17:03.039Z,97555.85
2023-01-13T18:19:49.932Z,97555.08
2023-01-13T18:22:36.303Z,97557.14
2023-01-13T18:25:23.184Z,97555.92
2023-01-13T18:27:51.034Z,97554.70
2023-01-13T18:30:19.160Z,97554.94
2023-01-13T18:32:46.991Z,97560.39
2023-01-13T18:35:14.901Z,97563.23
2023-01-13T18:37:43.136Z,97562.19
2023-01-13T18:40:13.335Z,97560.88
2023-01-13T18:42:56.343Z,97557.75
2023-01-13T18:45:27.533Z,97551.52
2023-01-13T18:47:57.901Z,97550.45
2023-01-13T18:50:26.359Z,97545.75
2023-01-13T18:52:54.450Z,97547.52
2023-01-13T18:55:22.683Z,97546.23
2023-01-13T18:57:51.329Z,97547.20
2023-01-13T19:00:21.085Z,97545.44
2023-01-13T19:05:35.664Z,97554.75
2023-01-13T19:08:04.711Z,97555.09
2023-01-13T19:10:32.965Z,97553.01
2023-01-13T19:13:01.712Z,97549.16
2023-01-13T19:15:30.497Z,97550.98
2023-01-13T19:18:01.546Z,97550.46
2023-01-13T19:20:29.387Z,97549.90
2023-01-13T19:22:57.322Z,97549.47
2023-01-13T19:25:25.164Z,97552.63
2023-01-13T19:27:53.032Z,97555.85
2023-01-13T19:30:21.229Z,97558.84
2023-01-13T19:32:49.209Z,97557.95
2023-01-13T19:35:18.140Z,97556.26
2023-01-13T19:37:46.098Z,97556.36
2023-01-13T19:40:14.098Z,97557.27
2023-01-13T19:43:04.140Z,97559.98
2023-01-13T19:45:35.251Z,97563.48
2023-01-13T19:48:05.329Z,97560.03
2023-01-13T19:50:40.446Z,97557.84
2023-01-13T19:53:16.092Z,97555.31
2023-01-13T19:55:49.235Z,97560.59
2023-01-13T19:58:21.127Z,97562.06
2023-01-13T20:00:49.143Z,97561.23
2023-01-13T20:03:20.783Z,97562.06
2023-01-13T20:05:48.621Z,97559.36
2023-01-13T20:08:18.000Z,97557.73
2023-01-13T20:10:46.579Z,97560.81
2023-01-13T20:13:15.416Z,97561.98
2023-01-13T20:15:43.983Z,97567.25
2023-01-13T20:18:11.856Z,97567.74
2023-01-13T20:20:39.817Z,97569.10
2023-01-13T20:23:07.666Z,97564.88
2023-01-13T20:25:35.994Z,97562.02
2023-01-13T20:28:04.415Z,97564.08
2023-01-13T20:30:32.232Z,97565.09
2023-01-13T20:33:00.097Z,97562.80
2023-01-13T20:35:29.704Z,97563.02
2023-01-13T20:37:57.726Z,97563.08
2023-01-13T20:40:25.703Z,97559.67
2023-01-13T20:42:53.479Z,97561.77
2023-01-13T20:45:24.047Z,97563.95
2023-01-13T20:47:54.908Z,97565.80
2023-01-13T20:50:22.850Z,97570.55
2023-01-13T20:52:52.602Z,97571.15
2023-01-13T20:55:20.384Z,97570.27
2023-01-13T20:57:51.507Z,97570.27
2023-01-13T21:00:19.946Z,97568.18
2023-01-13T21:02:47.882Z,97564.90
2023-01-13T21:05:15.987Z,97566.46
2023-01-13T21:07:43.957Z,97570.65
2023-01-13T21:10:11.850Z,97575.16
2023-01-13T21:12:58.270Z,97578.20
2023-01-13T21:15:27.505Z,97580.87
2023-01-13T21:18:14.078Z,97580.48
2023-01-13T21:20:41.945Z,97579.77
2023-01-13T21:23:10.909Z,97578.27
2023-01-13T21:25:40.145Z,97580.10
2023-01-13T21:28:11.439Z,97576.45
2023-01-13T21:30:39.949Z,97576.64
2023-01-13T21:33:11.732Z,97578.81
2023-01-13T21:35:39.668Z,97574.50
2023-01-13T21:38:07.642Z,97575.40
2023-01-13T21:40:35.674Z,97578.42
2023-01-13T21:43:21.921Z,97578.59
2023-01-13T21:46:10.953Z,97580.79
2023-01-13T21:48:38.803Z,97579.98
2023-01-13T21:51:06.794Z,97581.11
2023-01-13T21:53:34.745Z,97581.21
2023-01-13T21:56:02.802Z,97579.08
2023-01-13T21:58:30.852Z,97579.77
2023-01-13T22:01:01.672Z,97582.96
2023-01-13T22:03:29.607Z,97583.58
2023-01-13T22:05:57.448Z,97580.14
2023-01-13T22:08:25.451Z,97582.14
2023-01-13T22:11:00.114Z,97583.87
2023-01-13T22:13:47.993Z,97583.15
2023-01-13T22:16:16.636Z,97581.16
2023-01-13T22:18:44.566Z,97578.97
2023-01-13T22:21:12.617Z,97583.30
2023-01-13T22:23:40.453Z,97590.15
2023-01-13T22:26:08.564Z,97597.17
2023-01-13T22:28:43.468Z,97601.72
2023-01-13T22:31:16.739Z,97597.45
2023-01-13T22:33:48.180Z,97595.45
2023-01-13T22:36:16.398Z,97596.52
2023-01-13T22:38:44.668Z,97597.52
2023-01-13T22:41:13.107Z,97603.84
2023-01-13T22:43:41.302Z,97607.71
2023-01-13T22:46:11.568Z,97607.94
2023-01-13T22:48:40.830Z,97609.80
2023-01-13T22:51:11.876Z,97612.02
2023-01-13T22:53:40.686Z,97609.09
2023-01-13T22:56:17.215Z,97614.61
2023-01-13T22:58:45.466Z,97612.83
2023-01-13T23:01:15.592Z,97614.31
2023-01-13T23:03:46.385Z,97612.16
2023-01-13T23:06:15.147Z,97613.81
2023-01-13T23:08:43.156Z,97613.86
2023-01-13T23:11:12.877Z,97619.64
2023-01-13T23:13:43.231Z,97622.18
2023-01-13T23:16:17.603Z,97621.90
2023-01-13T23:18:48.062Z,97620.60
2023-01-13T23:21:19.326Z,97618.54
2023-01-13T23:23:47.987Z,97617.77
2023-01-13T23:26:17.061Z,97617.67
2023-01-13T23:28:45.315Z,97616.58
2023-01-13T23:31:15.995Z,97616.63
2023-01-13T23:33:44.872Z,97613.85
2023-01-13T23:36:24.233Z,97610.83
2023-01-13T23:38:53.124Z,97611.26
2023-01-13T23:41:25.765Z,97612.71
2023-01-13T23:43:58.920Z,97607.58
2023-01-13T23:46:29.398Z,97608.16
2023-01-13T23:48:57.347Z,97610.90
2023-01-13T23:51:26.475Z,97609.13
2023-01-13T23:53:54.459Z,97609.11
2023-01-13T23:56:26.811Z,97606.82
2023-01-13T23:58:55.202Z,97607.70
